^^
Station Historical Data
Daily Summary for October 12, 2017 Units:  Metric    English   Both
« Previous Day
Next Day »
Daily Weekly Monthly Yearly Custom
  High: Low: Average:
Temperature: 26 °C 14.7 °C 18.7 °C
Dew Point: 18.6 °C 10.6 °C 14.7 °C
Humidity: 99% 39% 81%
Wind Speed: 4.7km/h 0km/h 0km/h
Wind Gust: 4.8km/h - -
Wind- - SSE
Pressure: 1023.6 hPa 1019.9 hPa -
Precipitation: 0 mm    
Historical Graphs
 
 
Tabular Data for October 12, 2017
Time Temperature Dew Point Pressure Wind Wind Speed Wind Gust Humidity Rainfall Rate (Hourly)
00:02 17.2 °C 16.6 °C 1020.9 hPa Calm     96% 0 mm
00:12 16.9 °C 16.4 °C 1020.9 hPa Calm     97% 0 mm
00:17 16.9 °C 16.4 °C 1020.9 hPa Calm     97% 0 mm
00:22 16.9 °C 16.4 °C 1020.9 hPa Calm     97% 0 mm
00:27 16.8 °C 16.3 °C 1020.9 hPa Calm     97% 0 mm
00:29 16.8 °C 16.3 °C 1020.9 hPa Calm     97% 0 mm
00:34 16.7 °C 16.2 °C 1020.9 hPa Calm     97% 0 mm
00:39 16.7 °C 16.2 °C 1020.9 hPa Calm     97% 0 mm
00:44 16.6 °C 16.1 °C 1020.9 hPa Calm     97% 0 mm
00:49 16.6 °C 16.1 °C 1020.5 hPa Calm     97% 0 mm
00:54 16.6 °C 16.1 °C 1020.5 hPa Calm     97% 0 mm
00:59 16.6 °C 16.1 °C 1020.5 hPa Calm     97% 0 mm
01:04 16.5 °C 16 °C 1020.5 hPa Calm     97% 0 mm
01:09 16.5 °C 16 °C 1020.5 hPa Calm     97% 0 mm
01:14 16.5 °C 16.2 °C 1020.5 hPa Calm     98% 0 mm
01:19 16.5 °C 16 °C 1020.5 hPa Calm     97% 0 mm
01:24 16.4 °C 15.9 °C 1020.5 hPa Calm     97% 0 mm
01:29 16.3 °C 15.8 °C 1020.5 hPa Calm     97% 0 mm
01:34 16.3 °C 16 °C 1020.5 hPa Calm     98% 0 mm
01:39 16.3 °C 16 °C 1020.5 hPa Calm     98% 0 mm
01:44 16.3 °C 16 °C 1020.5 hPa Calm     98% 0 mm
01:49 16.2 °C 15.9 °C 1020.5 hPa Calm     98% 0 mm
01:54 16.1 °C 15.6 °C 1020.5 hPa Calm     97% 0 mm
01:59 16 °C 15.5 °C 1020.5 hPa Calm     97% 0 mm
02:05 16 °C 15.7 °C 1020.5 hPa Calm     98% 0 mm
02:10 15.9 °C 15.6 °C 1020.5 hPa Calm     98% 0 mm
02:15 15.9 °C 15.6 °C 1020.5 hPa Calm     98% 0 mm
02:20 15.8 °C 15.5 °C 1020.5 hPa Calm     98% 0 mm
02:25 15.8 °C 15.5 °C 1020.5 hPa Calm     98% 0 mm
02:35 15.8 °C 15.5 °C 1020.5 hPa Calm     98% 0 mm
02:40 15.8 °C 15.5 °C 1020.5 hPa Calm     98% 0 mm
02:45 15.8 °C 15.5 °C 1020.5 hPa Calm     98% 0 mm
02:50 15.6 °C 15.3 °C 1020.5 hPa Calm     98% 0 mm
02:55 15.4 °C 15.1 °C 1020.5 hPa Calm     98% 0 mm
03:00 15.3 °C 15 °C 1020.2 hPa Calm     98% 0 mm
03:05 15.3 °C 15 °C 1020.5 hPa Calm     98% 0 mm
03:10 15.4 °C 15.1 °C 1020.2 hPa Calm     98% 0 mm
03:21 15.3 °C 15 °C 1020.2 hPa Calm     98% 0 mm
03:26 15.2 °C 14.9 °C 1020.2 hPa Calm     98% 0 mm
03:31 15.2 °C 14.9 °C 1020.2 hPa Calm     98% 0 mm
03:36 15.1 °C 14.8 °C 1020.2 hPa Calm     98% 0 mm
03:41 15 °C 14.7 °C 1020.5 hPa Calm     98% 0 mm
03:46 15 °C 14.7 °C 1020.5 hPa Calm     98% 0 mm
03:51 15 °C 14.7 °C 1020.5 hPa Calm     98% 0 mm
03:56 14.9 °C 14.6 °C 1020.2 hPa Calm     98% 0 mm
04:01 14.9 °C 14.6 °C 1020.2 hPa Calm     98% 0 mm
04:06 14.9 °C 14.6 °C 1020.2 hPa Calm     98% 0 mm
04:11 14.8 °C 14.5 °C 1020.2 hPa Calm     98% 0 mm
04:16 14.8 °C 14.5 °C 1020.2 hPa Calm     98% 0 mm
04:21 14.7 °C 14.4 °C 1020.2 hPa Calm     98% 0 mm
04:26 14.7 °C 14.5 °C 1020.2 hPa Calm     99% 0 mm
04:31 14.9 °C 14.7 °C 1020.2 hPa Calm     99% 0 mm
04:36 14.9 °C 14.7 °C 1020.2 hPa Calm     99% 0 mm
04:41 15 °C 14.8 °C 1020.2 hPa Calm     99% 0 mm
04:46 15.1 °C 14.9 °C 1020.2 hPa Calm     99% 0 mm
04:51 15.2 °C 15 °C 1020.5 hPa Calm     99% 0 mm
04:56 15.2 °C 15 °C 1020.5 hPa Calm     99% 0 mm
05:01 15.2 °C 15 °C 1020.5 hPa Calm     99% 0 mm
05:06 15.2 °C 15 °C 1020.5 hPa Calm     99% 0 mm
05:12 15.2 °C 15 °C 1020.5 hPa Calm     99% 0 mm
05:17 15.2 °C 15 °C 1020.5 hPa Calm     99% 0 mm
05:22 15.2 °C 15 °C 1020.5 hPa Calm     99% 0 mm
05:24 15.2 °C 15 °C 1020.5 hPa Calm     99% 0 mm
05:29 15.3 °C 15.1 °C 1020.5 hPa Calm     99% 0 mm
05:34 15.3 °C 15.1 °C 1020.5 hPa Calm     99% 0 mm
05:39 15.3 °C 15.1 °C 1020.5 hPa Calm     99% 0 mm
05:44 15.3 °C 15.1 °C 1020.5 hPa Calm     99% 0 mm
05:49 15.2 °C 15 °C 1020.9 hPa Calm     99% 0 mm
05:54 15.2 °C 15 °C 1020.9 hPa Calm     99% 0 mm
05:59 15.2 °C 15 °C 1020.9 hPa Calm     99% 0 mm
06:04 15.2 °C 15 °C 1020.9 hPa Calm     99% 0 mm
06:09 15.2 °C 15 °C 1020.9 hPa Calm     99% 0 mm
06:14 15.1 °C 14.9 °C 1020.9 hPa Calm     99% 0 mm
06:20 15.1 °C 14.9 °C 1020.9 hPa Calm     99% 0 mm
06:25 15.1 °C 14.9 °C 1020.9 hPa Calm     99% 0 mm
06:30 15.1 °C 14.9 °C 1020.9 hPa Calm     99% 0 mm
06:35 15.1 °C 14.9 °C 1020.9 hPa Calm     99% 0 mm
06:40 15.1 °C 14.9 °C 1021.2 hPa Calm     99% 0 mm
06:45 15.1 °C 14.9 °C 1021.2 hPa Calm     99% 0 mm
06:50 15.1 °C 14.9 °C 1021.2 hPa Calm     99% 0 mm
06:55 15.1 °C 14.9 °C 1020.9 hPa Calm     99% 0 mm
07:05 15.1 °C 14.9 °C 1021.2 hPa Calm     99% 0 mm
07:10 15.1 °C 14.9 °C 1021.2 hPa Calm     99% 0 mm
07:15 15.1 °C 14.9 °C 1021.2 hPa Calm     99% 0 mm
07:20 15.1 °C 14.9 °C 1021.2 hPa Calm     99% 0 mm
07:25 15.1 °C 14.9 °C 1021.2 hPa Calm     99% 0 mm
07:30 15.1 °C 14.9 °C 1021.2 hPa Calm     99% 0 mm
07:35 15.1 °C 14.8 °C 1021.2 hPa Calm     98% 0 mm
07:40 15.1 °C 14.8 °C 1021.6 hPa Calm     98% 0 mm
07:50 15.1 °C 14.8 °C 1021.6 hPa Calm     98% 0 mm
07:55 15.1 °C 14.8 °C 1021.6 hPa Calm     98% 0 mm
08:00 15.1 °C 14.8 °C 1021.6 hPa Calm     98% 0 mm
08:05 15.2 °C 14.9 °C 1021.6 hPa Calm     98% 0 mm
08:10 15.3 °C 15 °C 1021.6 hPa Calm     98% 0 mm
08:16 15.3 °C 15 °C 1021.6 hPa Calm     98% 0 mm
08:21 15.3 °C 15 °C 1021.6 hPa Calm     98% 0 mm
08:26 15.3 °C 15 °C 1021.9 hPa Calm     98% 0 mm
08:31 15.3 °C 15 °C 1021.9 hPa Calm     98% 0 mm
08:36 15.4 °C 15.1 °C 1021.9 hPa Calm     98% 0 mm
08:41 15.4 °C 15.1 °C 1022.2 hPa Calm     98% 0 mm
08:46 15.5 °C 15.2 °C 1022.2 hPa Calm     98% 0 mm
08:51 15.6 °C 15.3 °C 1022.2 hPa Calm     98% 0 mm
08:56 15.7 °C 15.4 °C 1022.2 hPa Calm     98% 0 mm
09:06 15.9 °C 15.6 °C 1022.2 hPa Calm     98% 0 mm
09:11 16 °C 15.7 °C 1022.2 hPa Calm     98% 0 mm
09:16 16.1 °C 15.6 °C 1022.2 hPa Calm     97% 0 mm
09:21 16.1 °C 15.6 °C 1022.2 hPa Calm     97% 0 mm
09:26 16.2 °C 15.7 °C 1022.2 hPa Calm     97% 0 mm
09:31 16.3 °C 15.8 °C 1022.2 hPa Calm     97% 0 mm
09:36 16.4 °C 15.9 °C 1022.2 hPa Calm     97% 0 mm
09:41 16.6 °C 16.1 °C 1022.2 hPa Calm     97% 0 mm
09:46 16.7 °C 16.1 °C 1022.2 hPa Calm     96% 0 mm
09:51 16.8 °C 16.2 °C 1022.2 hPa Calm     96% 0 mm
09:56 17 °C 16.4 °C 1022.2 hPa Calm     96% 0 mm
10:01 17.1 °C 16.3 °C 1022.2 hPa Calm     95% 0 mm
10:06 17.1 °C 16.3 °C 1022.2 hPa Calm     95% 0 mm
10:11 17.2 °C 16.4 °C 1022.2 hPa Calm     95% 0 mm
10:16 17.3 °C 16.5 °C 1022.2 hPa Calm     95% 0 mm
10:21 17.4 °C 16.6 °C 1022.2 hPa Calm     95% 0 mm
10:26 17.5 °C 16.7 °C 1022.2 hPa Calm     95% 0 mm
10:31 17.5 °C 16.5 °C 1022.2 hPa Calm     94% 0 mm
10:36 17.6 °C 16.6 °C 1022.2 hPa Calm     94% 0 mm
10:41 17.8 °C 16.8 °C 1022.2 hPa Calm     94% 0 mm
10:46 17.9 °C 16.9 °C 1022.6 hPa Calm     94% 0 mm
10:51 18.1 °C 16.9 °C 1022.6 hPa Calm     93% 0 mm
10:56 18.2 °C 17 °C 1022.6 hPa Calm     93% 0 mm
11:01 18.3 °C 17.1 °C 1022.6 hPa Calm     93% 0 mm
11:06 18.2 °C 17 °C 1022.6 hPa Calm     93% 0 mm
11:12 18.3 °C 17.3 °C 1022.2 hPa Calm     94% 0 mm
11:17 18.5 °C 17.3 °C 1022.2 hPa Calm     93% 0 mm
11:22 18.4 °C 17.1 °C 1022.2 hPa Calm     92% 0 mm
11:27 18.6 °C 17.3 °C 1022.2 hPa Calm     92% 0 mm
11:32 18.7 °C 17.4 °C 1022.2 hPa Calm     92% 0 mm
11:37 18.8 °C 17.3 °C 1022.2 hPa Calm     91% 0 mm
11:42 18.9 °C 17.4 °C 1022.2 hPa Calm     91% 0 mm
11:47 19.1 °C 17.6 °C 1022.2 hPa Calm     91% 0 mm
11:52 18.9 °C 17.4 °C 1022.2 hPa Calm     91% 0 mm
11:57 19 °C 17.3 °C 1022.2 hPa Calm     90% 0 mm
12:02 19.3 °C 17.8 °C 1022.2 hPa Calm     91% 0 mm
12:07 19.6 °C 17.9 °C 1022.2 hPa Calm     90% 0 mm
12:12 19.8 °C 18.1 °C 1022.2 hPa Calm     90% 0 mm
12:17 19.9 °C 18.2 °C 1022.2 hPa Calm     90% 0 mm
12:22 20.1 °C 18 °C 1021.9 hPa Calm     88% 0 mm
12:28 20.2 °C 18 °C 1021.9 hPa Calm     87% 0 mm
12:33 20.3 °C 18.2 °C 1021.9 hPa Calm     88% 0 mm
12:38 20.4 °C 18.2 °C 1021.9 hPa Calm     87% 0 mm
12:43 20.5 °C 18.3 °C 1021.6 hPa Calm     87% 0 mm
12:48 20.6 °C 18.2 °C 1021.6 hPa Calm     86% 0 mm
12:53 20.8 °C 18.6 °C 1021.6 hPa Calm     87% 0 mm
12:58 21.1 °C 18.5 °C 1021.6 hPa Calm     85% 0 mm
13:03 21.3 °C 18.5 °C 1021.2 hPa Calm     84% 0 mm
13:13 21.5 °C 17.9 °C 1021.2 hPa Calm     80% 0 mm
13:18 21.7 °C 16.6 °C 1021.2 hPa Calm     73% 0 mm
13:23 21.9 °C 16.4 °C 1021.2 hPa Calm     71% 0 mm
13:28 22.1 °C 14.7 °C 1020.9 hPa Calm     63% 0 mm
13:33 22.5 °C 15.6 °C 1020.9 hPa Calm     65% 0 mm
13:38 22.8 °C 15.1 °C 1020.9 hPa Calm     62% 0 mm
13:43 23 °C 15.8 °C 1020.9 hPa Calm     64% 0 mm
13:48 23.2 °C 13.7 °C 1020.9 hPa Calm     55% 0 mm
13:53 23.3 °C 11.7 °C 1020.5 hPa Calm     48% 0 mm
13:58 23.7 °C 13 °C 1020.9 hPa Calm     51% 0 mm
14:03 23.9 °C 13.4 °C 1020.5 hPa Calm     52% 0 mm
14:08 23.9 °C 12.5 °C 1020.5 hPa Calm     49% 0 mm
14:13 24.1 °C 13.9 °C 1020.5 hPa Calm     53% 0 mm
14:18 24.2 °C 13.4 °C 1020.5 hPa Calm     51% 0 mm
14:23 24.4 °C 14.2 °C 1020.5 hPa Calm     53% 0 mm
14:34 24.6 °C 13.2 °C 1020.5 hPa Calm     49% 0 mm
14:39 24.7 °C 13.9 °C 1020.2 hPa Calm     51% 0 mm
14:44 24.7 °C 13.9 °C 1020.2 hPa Calm     51% 0 mm
14:49 24.7 °C 13.9 °C 1020.2 hPa Calm     51% 0 mm
14:54 24.7 °C 13 °C 1020.2 hPa Calm     48% 0 mm
14:59 24.8 °C 12.4 °C 1020.2 hPa Calm     46% 0 mm
15:04 24.9 °C 12.8 °C 1019.9 hPa Calm     47% 0 mm
15:09 24.9 °C 11.8 °C 1020.2 hPa Calm     44% 0 mm
15:14 25.1 °C 12.3 °C 1020.2 hPa Calm     45% 0 mm
15:19 25.3 °C 12.5 °C 1019.9 hPa Calm     45% 0 mm
15:24 25.3 °C 11.8 °C 1019.9 hPa Calm     43% 0 mm
15:29 25.4 °C 11.2 °C 1019.9 hPa Calm     41% 0 mm
15:34 25.6 °C 12.1 °C 1019.9 hPa Calm     43% 0 mm
15:39 25.8 °C 11.9 °C 1019.9 hPa Calm     42% 0 mm
15:44 25.9 °C 11.3 °C 1019.9 hPa Calm     40% 0 mm
15:49 26 °C 12.1 °C 1019.9 hPa Calm     42% 0 mm
15:54 25.9 °C 11.3 °C 1019.9 hPa Calm     40% 0 mm
15:59 25.8 °C 11.2 °C 1019.9 hPa Calm     40% 0 mm
16:04 25.9 °C 11.3 °C 1019.9 hPa Calm     40% 0 mm
16:09 25.9 °C 10.9 °C 1019.9 hPa Calm     39% 0 mm
16:14 25.9 °C 11.3 °C 1019.9 hPa Calm     40% 0 mm
16:19 25.8 °C 11.2 °C 1019.9 hPa Calm     40% 0 mm
16:21 25.8 °C 12.3 °C 1019.9 hPa Calm     43% 0 mm
16:26 25.6 °C 11.7 °C 1019.9 hPa Calm     42% 0 mm
16:31 25.6 °C 12.1 °C 1019.9 hPa Calm     43% 0 mm
16:36 25.7 °C 11.8 °C 1019.9 hPa Calm     42% 0 mm
16:41 25.7 °C 11.5 °C 1019.9 hPa Calm     41% 0 mm
16:47 25.7 °C 11.8 °C 1019.9 hPa Calm     42% 0 mm
16:52 25.7 °C 11.8 °C 1019.9 hPa Calm     42% 0 mm
16:57 25.6 °C 10.6 °C 1019.9 hPa Calm     39% 0 mm
17:02 25.5 °C 10.9 °C 1019.9 hPa Calm     40% 0 mm
17:07 25.4 °C 11.9 °C 1019.9 hPa Calm     43% 0 mm
17:12 25.4 °C 11.6 °C 1019.9 hPa Calm     42% 0 mm
17:17 25.3 °C 11.5 °C 1019.9 hPa Calm     42% 0 mm
17:22 25.3 °C 11.1 °C 1019.9 hPa Calm     41% 0 mm
17:27 25.3 °C 11.5 °C 1019.9 hPa Calm     42% 0 mm
17:32 25.3 °C 11.8 °C 1019.9 hPa Calm     43% 0 mm
17:37 25.3 °C 11.8 °C 1019.9 hPa Calm     43% 0 mm
17:42 25.2 °C 11.7 °C 1020.2 hPa Calm     43% 0 mm
17:47 25.2 °C 12.1 °C 1020.2 hPa Calm     44% 0 mm
17:52 25.1 °C 12.7 °C 1020.2 hPa Calm     46% 0 mm
17:57 25.1 °C 12 °C 1020.2 hPa Calm     44% 0 mm
18:02 25.1 °C 13.6 °C 1020.2 hPa Calm     49% 0 mm
18:07 24.9 °C 14.4 °C 1020.2 hPa Calm     52% 0 mm
18:12 24.7 °C 14.8 °C 1020.2 hPa Calm     54% 0 mm
18:17 24.3 °C 15 °C 1020.2 hPa Calm     56% 0 mm
18:22 24 °C 15 °C 1020.2 hPa Calm     57% 0 mm
18:27 23.7 °C 14.9 °C 1020.2 hPa Calm     58% 0 mm
18:32 23.3 °C 14.6 °C 1020.5 hPa Calm     58% 0 mm
18:37 23.1 °C 14.9 °C 1020.5 hPa Calm     60% 0 mm
18:42 22.8 °C 15.1 °C 1020.5 hPa Calm     62% 0 mm
18:47 22.4 °C 14.8 °C 1020.5 hPa Calm     62% 0 mm
18:52 22.1 °C 14.5 °C 1020.5 hPa Calm     62% 0 mm
18:57 21.7 °C 14.3 °C 1020.9 hPa Calm     63% 0 mm
19:02 21.3 °C 14.2 °C 1020.9 hPa Calm     64% 0 mm
19:07 21.1 °C 14 °C 1020.9 hPa Calm     64% 0 mm
19:12 20.9 °C 13.8 °C 1020.9 hPa Calm     64% 0 mm
19:17 20.8 °C 13.7 °C 1020.9 hPa Calm     64% 0 mm
19:22 20.9 °C 13.3 °C 1021.2 hPa Calm     62% 0 mm
19:28 20.9 °C 13.8 °C 1021.2 hPa Calm     64% 0 mm
19:33 20.8 °C 13.7 °C 1021.2 hPa Calm     64% 0 mm
19:38 20.8 °C 13.7 °C 1021.2 hPa Calm     64% 0 mm
19:43 20.6 °C 13.8 °C 1021.2 hPa Calm     65% 0 mm
19:48 20.4 °C 13.8 °C 1021.2 hPa Calm     66% 0 mm
19:53 20.2 °C 13.9 °C 1021.2 hPa Calm     67% 0 mm
19:58 20.1 °C 13.8 °C 1021.6 hPa Calm     67% 0 mm
20:03 19.9 °C 13.6 °C 1021.6 hPa Calm     67% 0 mm
20:08 19.8 °C 13.9 °C 1021.6 hPa Calm     69% 0 mm
20:13 19.7 °C 13.4 °C 1021.9 hPa Calm     67% 0 mm
20:18 19.6 °C 13.5 °C 1021.9 hPa Calm     68% 0 mm
20:23 19.5 °C 13.7 °C 1021.9 hPa Calm     69% 0 mm
20:28 19.4 °C 14 °C 1021.9 hPa Calm     71% 0 mm
20:33 19.2 °C 13.8 °C 1021.9 hPa SSE 4.7 km/h 4.8 km/h 71% 0 mm
20:38 19.1 °C 13.9 °C 1021.9 hPa SE 3.2 km/h 4.8 km/h 72% 0 mm
20:43 18.9 °C 14 °C 1022.2 hPa SSE 1.4 km/h 3.2 km/h 73% 0 mm
20:48 18.7 °C 14 °C 1022.2 hPa Calm     74% 0 mm
20:53 18.4 °C 13.9 °C 1022.2 hPa Calm     75% 0 mm
20:58 18.2 °C 13.9 °C 1022.2 hPa Calm     76% 0 mm
21:03 17.9 °C 13.8 °C 1022.2 hPa Calm     77% 0 mm
21:08 17.6 °C 13.7 °C 1022.2 hPa Calm     78% 0 mm
21:13 17.4 °C 13.7 °C 1022.2 hPa Calm     79% 0 mm
21:18 17.2 °C 13.7 °C 1022.6 hPa Calm     80% 0 mm
21:23 17.1 °C 13.8 °C 1022.6 hPa Calm     81% 0 mm
21:28 16.9 °C 13.8 °C 1022.6 hPa Calm     82% 0 mm
21:33 16.8 °C 13.9 °C 1022.6 hPa Calm     83% 0 mm
21:38 16.7 °C 13.8 °C 1022.6 hPa Calm     83% 0 mm
21:43 16.5 °C 13.8 °C 1022.6 hPa Calm     84% 0 mm
21:48 16.4 °C 13.9 °C 1022.9 hPa Calm     85% 0 mm
21:53 16.3 °C 13.8 °C 1022.6 hPa Calm     85% 0 mm
21:58 16.1 °C 13.8 °C 1022.6 hPa Calm     86% 0 mm
22:03 15.9 °C 13.6 °C 1022.9 hPa Calm     86% 0 mm
22:08 15.9 °C 13.7 °C 1022.9 hPa Calm     87% 0 mm
22:13 15.8 °C 13.6 °C 1022.9 hPa Calm     87% 0 mm
22:18 15.7 °C 13.5 °C 1022.9 hPa Calm     87% 0 mm
22:24 15.6 °C 13.6 °C 1022.9 hPa Calm     88% 0 mm
22:29 15.5 °C 13.7 °C 1022.9 hPa Calm     89% 0 mm
22:34 15.3 °C 13.5 °C 1022.9 hPa Calm     89% 0 mm
22:39 15.3 °C 13.8 °C 1022.9 hPa Calm     91% 0 mm
22:44 15.3 °C 13.5 °C 1023.2 hPa Calm     89% 0 mm
22:49 15.3 °C 13.5 °C 1023.2 hPa Calm     89% 0 mm
22:54 15.3 °C 13.5 °C 1023.2 hPa Calm     89% 0 mm
22:59 15.2 °C 13.6 °C 1023.2 hPa Calm     90% 0 mm
23:04 15.2 °C 13.6 °C 1023.2 hPa Calm     90% 0 mm
23:09 15.1 °C 13.5 °C 1023.2 hPa Calm     90% 0 mm
23:14 15.1 °C 13.6 °C 1023.2 hPa Calm     91% 0 mm
23:24 15 °C 13.4 °C 1023.2 hPa Calm     90% 0 mm
23:29 14.9 °C 13.4 °C 1023.6 hPa Calm     91% 0 mm
23:34 14.9 °C 13.4 °C 1023.6 hPa Calm     91% 0 mm
23:39 14.9 °C 13.4 °C 1023.6 hPa Calm     91% 0 mm
23:44 14.9 °C 13.4 °C 1023.6 hPa Calm     91% 0 mm
23:49 14.8 °C 13.3 °C 1023.6 hPa Calm     91% 0 mm
23:54 14.7 °C 13.4 °C 1023.6 hPa Calm     92% 0 mm
23:59 14.7 °C 13.4 °C 1023.6 hPa Calm     92% 0 mm
WheeWeather.com
Compliments of Weather Underground - 3.75 mb